createdAt,value
2019-06-15T00:00:36.162Z,95121.81
2019-06-15T00:01:40.372Z,95116.19
2019-06-15T00:03:02.082Z,95120.74
2019-06-15T00:04:06.303Z,95110.81
2019-06-15T00:05:09.902Z,95113.23
2019-06-15T00:06:14.054Z,95118.06
2019-06-15T00:07:17.625Z,95111.09
2019-06-15T00:08:21.788Z,95109.27
2019-06-15T00:09:25.335Z,95106.80
2019-06-15T00:10:29.480Z,95104.56
2019-06-15T00:11:33.017Z,95102.41
2019-06-15T00:12:37.029Z,95099.13
2019-06-15T00:13:40.509Z,95105.78
2019-06-15T00:14:44.358Z,95105.03
2019-06-15T00:15:47.894Z,95105.03
2019-06-15T00:16:52.019Z,95106.70
2019-06-15T00:17:55.478Z,95102.23
2019-06-15T00:18:59.555Z,95107.66
2019-06-15T00:20:04.577Z,95111.74
2019-06-15T00:21:08.699Z,95110.02
2019-06-15T00:22:12.217Z,95111.19
2019-06-15T00:23:17.433Z,95113.19
2019-06-15T00:24:34.559Z,95110.83
2019-06-15T00:25:26.777Z,95106.86
2019-06-15T00:26:30.318Z,95111.16
2019-06-15T00:27:34.520Z,95113.06
2019-06-15T00:28:38.094Z,95114.05
2019-06-15T00:29:42.267Z,95122.73
2019-06-15T00:30:45.793Z,95117.27
2019-06-15T00:31:49.902Z,95121.44
2019-06-15T00:32:53.367Z,95123.98
2019-06-15T00:33:57.492Z,95124.84
2019-06-15T00:35:00.986Z,95122.84
2019-06-15T00:36:05.517Z,95126.88
2019-06-15T00:37:08.970Z,95125.20
2019-06-15T00:38:13.069Z,95123.37
2019-06-15T00:39:16.712Z,95128.59
2019-06-15T00:40:20.975Z,95129.94
2019-06-15T00:41:24.498Z,95135.58
2019-06-15T00:42:28.607Z,95128.59
2019-06-15T00:43:32.236Z,95126.60
2019-06-15T00:44:36.275Z,95127.58
2019-06-15T00:45:39.725Z,95128.72
2019-06-15T00:46:43.928Z,95119.14
2019-06-15T00:47:47.444Z,95117.80
2019-06-15T00:48:52.654Z,95118.39
2019-06-15T00:49:56.241Z,95112.97
2019-06-15T00:51:00.383Z,95114.31
2019-06-15T00:52:03.921Z,95107.70
2019-06-15T00:53:07.966Z,95109.58
2019-06-15T00:54:11.616Z,95103.52
2019-06-15T00:55:15.788Z,95099.70
2019-06-15T00:56:19.300Z,95099.91
2019-06-15T00:57:23.491Z,95106.42
2019-06-15T00:58:26.935Z,95089.58
2019-06-15T00:59:31.080Z,95089.03
2019-06-15T01:00:34.658Z,95085.84
2019-06-15T01:01:38.797Z,95089.86
2019-06-15T01:02:42.229Z,95087.33
2019-06-15T01:03:46.268Z,95085.84
2019-06-15T01:04:49.782Z,95079.28
2019-06-15T01:05:53.877Z,95080.03
2019-06-15T01:06:57.359Z,95072.67
2019-06-15T01:08:01.466Z,95069.45
2019-06-15T01:09:06.855Z,95060.92
2019-06-15T01:10:11.368Z,95055.77
2019-06-15T01:11:14.817Z,95052.76
2019-06-15T01:12:19.005Z,95053.14
2019-06-15T01:13:22.521Z,95048.30
2019-06-15T01:14:26.684Z,95042.29
2019-06-15T01:15:30.334Z,95036.24
2019-06-15T01:16:34.364Z,95033.97
2019-06-15T01:17:37.997Z,95043.81
2019-06-15T01:18:42.188Z,95044.03
2019-06-15T01:19:45.705Z,95046.56
2019-06-15T01:20:50.685Z,95044.63
2019-06-15T01:21:54.268Z,95048.17
2019-06-15T01:22:58.414Z,95049.18
2019-06-15T01:24:01.958Z,95056.42
2019-06-15T01:25:11.053Z,95052.95
2019-06-15T01:26:14.941Z,95056.42
2019-06-15T01:27:19.226Z,95049.45
2019-06-15T01:28:22.948Z,95055.95
2019-06-15T01:29:27.168Z,95058.63
2019-06-15T01:30:30.855Z,95057.56
2019-06-15T01:31:35.274Z,95061.67
2019-06-15T01:32:38.975Z,95059.73
2019-06-15T01:33:43.162Z,95065.96
2019-06-15T01:34:46.646Z,95062.61
2019-06-15T01:35:50.835Z,95068.25
2019-06-15T01:36:54.602Z,95061.69
2019-06-15T01:37:58.722Z,95058.55
2019-06-15T01:39:02.237Z,95062.70
2019-06-15T01:40:08.681Z,95057.33
2019-06-15T01:41:12.317Z,95059.00
2019-06-15T01:42:16.163Z,95065.12
2019-06-15T01:43:19.614Z,95063.70
2019-06-15T01:44:23.763Z,95062.14
2019-06-15T01:45:27.568Z,95068.50
2019-06-15T01:46:31.702Z,95064.09
2019-06-15T01:47:35.516Z,95058.45
2019-06-15T01:48:39.642Z,95066.48
2019-06-15T01:49:43.240Z,95059.17
2019-06-15T01:50:47.570Z,95063.34
2019-06-15T01:51:51.119Z,95053.74
2019-06-15T01:52:55.228Z,95053.95
2019-06-15T01:53:58.818Z,95047.84
2019-06-15T01:55:02.998Z,95043.61
2019-06-15T01:56:06.525Z,95042.09
2019-06-15T01:57:10.673Z,95040.00
2019-06-15T01:58:14.194Z,95040.81
2019-06-15T01:59:18.317Z,95036.64
2019-06-15T02:00:24.864Z,95029.34
2019-06-15T02:01:28.989Z,95029.94
2019-06-15T02:02:32.503Z,95021.75
2019-06-15T02:03:36.698Z,95023.03
2019-06-15T02:04:40.293Z,95020.20
2019-06-15T02:05:44.329Z,95024.19
2019-06-15T02:06:47.933Z,95021.02
2019-06-15T02:07:52.251Z,95018.23
2019-06-15T02:08:55.932Z,95015.76
2019-06-15T02:10:00.088Z,95021.92
2019-06-15T02:11:03.619Z,95020.80
2019-06-15T02:12:07.830Z,95017.52
2019-06-15T02:13:11.420Z,95012.00
2019-06-15T02:14:15.789Z,95013.83
2019-06-15T02:15:19.313Z,95010.81
2019-06-15T02:16:23.483Z,95010.55
2019-06-15T02:17:26.940Z,95011.89
2019-06-15T02:18:32.485Z,95007.59
2019-06-15T02:19:35.947Z,95014.15
2019-06-15T02:20:40.074Z,95009.95
2019-06-15T02:21:43.592Z,95008.94
2019-06-15T02:22:47.727Z,95006.25
2019-06-15T02:23:51.179Z,95005.78
2019-06-15T02:24:55.244Z,95000.89
2019-06-15T02:25:58.751Z,94998.21
2019-06-15T02:27:02.932Z,95002.03
2019-06-15T02:28:06.544Z,95002.77
2019-06-15T02:29:10.603Z,94993.56
2019-06-15T02:30:14.324Z,94991.30
2019-06-15T02:31:18.395Z,94993.30
2019-06-15T02:32:21.857Z,94990.02
2019-06-15T02:33:26.096Z,94992.58
2019-06-15T02:34:29.625Z,94989.48
2019-06-15T02:35:33.759Z,94990.59
2019-06-15T02:36:37.303Z,94994.19
2019-06-15T02:37:41.402Z,94991.29
2019-06-15T02:38:44.937Z,94994.39
2019-06-15T02:39:49.126Z,94999.88
2019-06-15T02:40:52.680Z,94994.33
2019-06-15T02:41:56.961Z,94991.03
2019-06-15T02:43:00.575Z,94990.31
2019-06-15T02:44:05.044Z,94994.93
2019-06-15T02:45:08.838Z,94987.28
2019-06-15T02:46:13.276Z,94996.03
2019-06-15T02:47:16.893Z,95001.55
2019-06-15T02:48:21.006Z,94995.44
2019-06-15T02:49:24.601Z,95001.34
2019-06-15T02:50:29.818Z,95001.28
2019-06-15T02:51:33.818Z,95003.22
2019-06-15T02:52:38.106Z,95003.88
2019-06-15T02:53:41.567Z,95002.08
2019-06-15T02:54:46.523Z,95000.92
2019-06-15T02:55:51.148Z,95007.50
2019-06-15T02:56:54.986Z,95011.70
2019-06-15T02:57:58.454Z,95013.52
2019-06-15T02:59:02.717Z,95002.20
2019-06-15T03:00:08.048Z,95008.00
2019-06-15T03:01:12.253Z,94999.28
2019-06-15T03:02:15.853Z,95005.23
2019-06-15T03:03:19.953Z,94999.55
2019-06-15T03:04:23.478Z,95006.25
2019-06-15T03:05:27.689Z,94998.80
2019-06-15T03:06:31.431Z,94998.41
2019-06-15T03:07:35.718Z,94998.41
2019-06-15T03:08:39.323Z,94998.41
2019-06-15T03:09:43.464Z,94994.66
2019-06-15T03:10:46.983Z,94998.20
2019-06-15T03:11:51.400Z,95002.93
2019-06-15T03:12:54.939Z,95008.29
2019-06-15T03:14:00.641Z,95008.29
2019-06-15T03:15:06.538Z,95003.19
2019-06-15T03:16:11.638Z,95010.48
2019-06-15T03:17:15.141Z,95004.41
2019-06-15T03:18:19.273Z,95012.72
2019-06-15T03:19:22.961Z,95011.91
2019-06-15T03:20:27.194Z,95011.02
2019-06-15T03:21:30.735Z,95017.22
2019-06-15T03:22:35.009Z,95014.13
2019-06-15T03:23:38.548Z,95013.26
2019-06-15T03:24:42.558Z,95016.05
2019-06-15T03:25:46.118Z,95021.95
2019-06-15T03:26:50.278Z,95018.95
2019-06-15T03:27:53.681Z,95019.11
2019-06-15T03:28:57.763Z,95024.73
2019-06-15T03:30:01.371Z,95022.66
2019-06-15T03:31:06.613Z,95022.92
2019-06-15T03:32:10.126Z,95021.55
2019-06-15T03:33:14.270Z,95020.04
2019-06-15T03:34:17.778Z,95020.37
2019-06-15T03:35:22.058Z,95019.74
2019-06-15T03:36:25.734Z,95024.06
2019-06-15T03:37:29.917Z,95023.44
2019-06-15T03:38:33.594Z,95029.81
2019-06-15T03:39:37.627Z,95029.89
2019-06-15T03:40:42.502Z,95037.27
2019-06-15T03:41:46.600Z,95038.46
2019-06-15T03:42:50.227Z,95038.34
2019-06-15T03:43:54.272Z,95042.14
2019-06-15T03:44:57.713Z,95036.56
2019-06-15T03:46:02.720Z,95037.47
2019-06-15T03:47:06.416Z,95037.05
2019-06-15T03:48:10.525Z,95040.00
2019-06-15T03:49:14.226Z,95041.07
2019-06-15T03:50:18.605Z,95036.23
2019-06-15T03:51:22.151Z,95035.13
2019-06-15T03:52:26.262Z,95046.77
2019-06-15T03:53:29.781Z,95035.78
2019-06-15T03:54:34.011Z,95037.16
2019-06-15T03:55:40.437Z,95039.02
2019-06-15T03:56:43.401Z,95035.12
2019-06-15T03:57:46.938Z,95035.51
2019-06-15T03:58:51.012Z,95039.65
2019-06-15T03:59:54.678Z,95038.55
2019-06-15T04:01:22.834Z,95040.70
2019-06-15T04:02:26.304Z,95043.34
2019-06-15T04:03:30.461Z,95044.33
2019-06-15T04:04:34.689Z,95046.27
2019-06-15T04:05:38.799Z,95051.89
2019-06-15T04:06:42.403Z,95047.05
2019-06-15T04:07:46.575Z,95048.56
2019-06-15T04:08:50.166Z,95048.59
2019-06-15T04:09:54.206Z,95046.39
2019-06-15T04:10:57.705Z,95043.36
2019-06-15T04:12:01.786Z,95034.38
2019-06-15T04:13:05.730Z,95038.41
2019-06-15T04:14:10.005Z,95038.00
2019-06-15T04:15:13.624Z,95041.19
2019-06-15T04:16:17.573Z,95046.23
2019-06-15T04:17:22.244Z,95049.22
2019-06-15T04:18:26.316Z,95044.55
2019-06-15T04:19:29.821Z,95045.61
2019-06-15T04:20:34.100Z,95040.53
2019-06-15T04:21:37.753Z,95042.88
2019-06-15T04:22:41.859Z,95040.75
2019-06-15T04:23:45.658Z,95052.58
2019-06-15T04:24:49.734Z,95053.90
2019-06-15T04:25:53.256Z,95046.56
2019-06-15T04:26:57.546Z,95047.47
2019-06-15T04:28:01.104Z,95048.34
2019-06-15T04:29:05.383Z,95042.12
2019-06-15T04:30:09.284Z,95045.27
2019-06-15T04:31:13.436Z,95053.34
2019-06-15T04:32:16.961Z,95052.02
2019-06-15T04:33:20.754Z,95055.28
2019-06-15T04:34:24.297Z,95055.66
2019-06-15T04:35:28.402Z,95055.47
2019-06-15T04:36:31.881Z,95050.55
2019-06-15T04:37:36.004Z,95052.80
2019-06-15T04:38:39.526Z,95051.64
2019-06-15T04:39:43.593Z,95051.17
2019-06-15T04:40:47.057Z,95054.28
2019-06-15T04:41:51.112Z,95049.21
2019-06-15T04:42:54.693Z,95052.45
2019-06-15T04:43:58.763Z,95051.52
2019-06-15T04:45:02.371Z,95049.99
2019-06-15T04:46:06.564Z,95055.09
2019-06-15T04:47:10.128Z,95061.97
2019-06-15T04:48:14.433Z,95062.87
2019-06-15T04:49:18.060Z,95064.55
2019-06-15T04:50:22.415Z,95062.59
2019-06-15T04:51:25.873Z,95069.53
2019-06-15T04:52:30.203Z,95067.45
2019-06-15T04:53:34.417Z,95062.66
2019-06-15T04:54:38.535Z,95059.14
2019-06-15T04:55:42.046Z,95056.68
2019-06-15T04:56:51.013Z,95053.28
2019-06-15T04:57:51.378Z,95055.40
2019-06-15T04:58:55.440Z,95054.22
2019-06-15T04:59:58.974Z,95060.72
2019-06-15T05:01:03.252Z,95055.66
2019-06-15T05:02:06.837Z,95067.38
2019-06-15T05:03:11.194Z,95065.58
2019-06-15T05:04:14.653Z,95062.25
2019-06-15T05:05:19.051Z,95059.98
2019-06-15T05:06:22.507Z,95052.70
2019-06-15T05:07:26.559Z,95058.80
2019-06-15T05:08:30.056Z,95059.67
2019-06-15T05:09:34.136Z,95064.55
2019-06-15T05:10:37.646Z,95058.58
2019-06-15T05:11:41.688Z,95067.91
2019-06-15T05:12:45.217Z,95060.47
2019-06-15T05:13:49.445Z,95059.29
2019-06-15T05:14:52.962Z,95062.84
2019-06-15T05:15:57.078Z,95056.58
2019-06-15T05:17:00.666Z,95062.95
2019-06-15T05:18:04.782Z,95061.58
2019-06-15T05:19:08.410Z,95061.39
2019-06-15T05:20:15.957Z,95066.55
2019-06-15T05:21:19.547Z,95062.95
2019-06-15T05:22:23.722Z,95065.12
2019-06-15T05:23:27.296Z,95061.86
2019-06-15T05:24:31.367Z,95072.25
2019-06-15T05:25:34.907Z,95075.76
2019-06-15T05:26:39.269Z,95079.14
2019-06-15T05:27:42.861Z,95096.08
2019-06-15T05:28:46.996Z,95133.61
2019-06-15T05:29:50.648Z,95142.89
2019-06-15T05:30:54.850Z,95153.48
2019-06-15T05:31:58.524Z,95148.13
2019-06-15T05:33:02.860Z,95146.91
2019-06-15T05:34:06.418Z,95159.98
2019-06-15T05:35:11.206Z,95162.47
2019-06-15T05:36:14.788Z,95156.02
2019-06-15T05:37:19.238Z,95163.55
2019-06-15T05:38:22.909Z,95160.36
2019-06-15T05:39:27.093Z,95164.26
2019-06-15T05:40:30.603Z,95173.77
2019-06-15T05:41:34.667Z,95174.34
2019-06-15T05:42:38.264Z,95175.64
2019-06-15T05:43:42.469Z,95179.59
2019-06-15T05:44:46.210Z,95177.34
2019-06-15T05:45:50.485Z,95181.80
2019-06-15T05:46:54.170Z,95186.37
2019-06-15T05:47:58.354Z,95193.16
2019-06-15T05:49:01.960Z,95189.69
2019-06-15T05:50:07.944Z,95196.97
2019-06-15T05:51:11.691Z,95193.05
2019-06-15T05:52:15.781Z,95189.59
2019-06-15T05:53:19.273Z,95202.35
2019-06-15T05:54:23.636Z,95207.52
2019-06-15T05:55:27.481Z,95206.60
2019-06-15T05:56:33.533Z,95207.47
2019-06-15T05:57:37.157Z,95211.77
2019-06-15T05:58:41.279Z,95215.20
2019-06-15T05:59:44.859Z,95216.06
2019-06-15T06:00:49.256Z,95206.68
2019-06-15T06:01:52.871Z,95202.34
2019-06-15T06:02:57.066Z,95207.26
2019-06-15T06:04:00.667Z,95222.28
2019-06-15T06:05:08.289Z,95209.27
2019-06-15T06:06:11.932Z,95219.12
2019-06-15T06:07:16.114Z,95229.66
2019-06-15T06:08:19.844Z,95229.38
2019-06-15T06:09:24.037Z,95230.13
2019-06-15T06:10:27.728Z,95229.81
2019-06-15T06:11:31.858Z,95225.63
2019-06-15T06:12:35.785Z,95239.47
2019-06-15T06:13:40.227Z,95235.57
2019-06-15T06:14:43.741Z,95237.34
2019-06-15T06:15:47.933Z,95251.17
2019-06-15T06:16:51.443Z,95231.38
2019-06-15T06:17:55.828Z,95237.48
2019-06-15T06:18:59.747Z,95248.02
2019-06-15T06:20:05.549Z,95250.23
2019-06-15T06:21:09.627Z,95231.92
2019-06-15T06:22:13.759Z,95254.45
2019-06-15T06:23:17.548Z,95252.79
2019-06-15T06:24:21.931Z,95254.80
2019-06-15T06:25:27.557Z,95253.93
2019-06-15T06:26:32.131Z,95263.92
2019-06-15T06:27:36.897Z,95263.59
2019-06-15T06:28:54.089Z,95253.41
2019-06-15T06:29:46.627Z,95275.89
2019-06-15T06:30:50.938Z,95268.39
2019-06-15T06:31:54.617Z,95272.34
2019-06-15T06:32:58.936Z,95277.66
2019-06-15T06:34:02.873Z,95283.73
2019-06-15T06:35:08.387Z,95285.94
2019-06-15T06:36:11.969Z,95266.88
2019-06-15T06:37:16.324Z,95283.55
2019-06-15T06:38:20.695Z,95287.80
2019-06-15T06:39:24.964Z,95281.05
2019-06-15T06:40:28.699Z,95288.45
2019-06-15T06:41:33.083Z,95293.50
2019-06-15T06:42:36.929Z,95290.39
2019-06-15T06:43:41.068Z,95288.44
2019-06-15T06:44:44.573Z,95297.63
2019-06-15T06:45:48.936Z,95304.92
2019-06-15T06:46:52.591Z,95284.80
2019-06-15T06:47:56.997Z,95290.09
2019-06-15T06:49:00.597Z,95295.75
2019-06-15T06:50:07.863Z,95288.88
2019-06-15T06:51:11.512Z,95303.66
2019-06-15T06:52:15.768Z,95295.16
2019-06-15T06:53:19.487Z,95295.75
2019-06-15T06:54:23.768Z,95296.66
2019-06-15T06:55:27.369Z,95301.38
2019-06-15T06:56:31.496Z,95307.56
2019-06-15T06:57:35.041Z,95310.92
2019-06-15T06:58:39.134Z,95306.89
2019-06-15T06:59:42.731Z,95316.16
2019-06-15T07:00:46.831Z,95299.26
2019-06-15T07:01:50.315Z,95316.16
2019-06-15T07:02:54.406Z,95319.27
2019-06-15T07:03:57.888Z,95327.33
2019-06-15T07:05:01.945Z,95319.27
2019-06-15T07:06:05.746Z,95317.93
2019-06-15T07:07:09.869Z,95329.22
2019-06-15T07:08:13.408Z,95329.61
2019-06-15T07:09:17.425Z,95319.34
2019-06-15T07:10:20.975Z,95337.12
2019-06-15T07:11:25.026Z,95342.36
2019-06-15T07:12:28.538Z,95313.48
2019-06-15T07:13:32.596Z,95322.77
2019-06-15T07:14:36.070Z,95331.30
2019-06-15T07:15:40.190Z,95333.94
2019-06-15T07:16:43.738Z,95334.20
2019-06-15T07:17:47.944Z,95339.10
2019-06-15T07:18:51.511Z,95338.45
2019-06-15T07:19:55.654Z,95340.97
2019-06-15T07:20:59.167Z,95348.08
2019-06-15T07:22:03.203Z,95340.12
2019-06-15T07:23:06.644Z,95341.27
2019-06-15T07:24:10.780Z,95339.27
2019-06-15T07:25:14.478Z,95338.33
2019-06-15T07:26:18.295Z,95337.41
2019-06-15T07:27:21.730Z,95344.39
2019-06-15T07:28:25.793Z,95338.00
2019-06-15T07:29:29.290Z,95336.27
2019-06-15T07:30:33.155Z,95332.95
2019-06-15T07:31:36.577Z,95331.22
2019-06-15T07:32:40.616Z,95320.20
2019-06-15T07:33:44.215Z,95338.63
2019-06-15T07:34:48.329Z,95337.98
2019-06-15T07:35:51.807Z,95344.25
2019-06-15T07:36:55.893Z,95351.52
2019-06-15T07:37:59.406Z,95336.59
2019-06-15T07:39:03.425Z,95351.03
2019-06-15T07:40:07.621Z,95335.41
2019-06-15T07:41:11.786Z,95346.14
2019-06-15T07:42:15.376Z,95340.77
2019-06-15T07:43:19.408Z,95348.03
2019-06-15T07:44:22.925Z,95354.54
2019-06-15T07:45:27.150Z,95351.09
2019-06-15T07:46:30.764Z,95347.06
2019-06-15T07:47:34.926Z,95356.26
2019-06-15T07:48:38.376Z,95356.26
2019-06-15T07:49:42.447Z,95359.21
2019-06-15T07:50:45.945Z,95356.41
2019-06-15T07:51:50.427Z,95360.02
2019-06-15T07:52:54.020Z,95358.52
2019-06-15T07:53:58.088Z,95366.53
2019-06-15T07:55:01.592Z,95363.61
2019-06-15T07:56:05.734Z,95373.34
2019-06-15T07:57:09.169Z,95371.67
2019-06-15T07:58:24.139Z,95368.91
2019-06-15T07:59:18.561Z,95369.94
2019-06-15T08:00:22.914Z,95372.20
2019-06-15T08:01:26.401Z,95371.65
2019-06-15T08:02:30.640Z,95372.84
2019-06-15T08:03:34.158Z,95378.63
2019-06-15T08:04:38.253Z,95385.03
2019-06-15T08:05:41.789Z,95386.69
2019-06-15T08:06:45.821Z,95390.77
2019-06-15T08:07:49.326Z,95396.33
2019-06-15T08:08:53.356Z,95391.73
2019-06-15T08:09:56.823Z,95379.73
2019-06-15T08:11:00.865Z,95397.06
2019-06-15T08:12:04.638Z,95389.08
2019-06-15T08:13:08.751Z,95408.08
2019-06-15T08:14:12.235Z,95389.55
2019-06-15T08:15:16.447Z,95401.48
2019-06-15T08:16:19.937Z,95404.69
2019-06-15T08:17:24.057Z,95412.42
2019-06-15T08:18:27.597Z,95411.31
2019-06-15T08:19:31.671Z,95410.29
2019-06-15T08:20:35.450Z,95409.28
2019-06-15T08:21:39.587Z,95423.26
2019-06-15T08:22:43.094Z,95413.63
2019-06-15T08:23:47.118Z,95422.65
2019-06-15T08:24:50.590Z,95416.31
2019-06-15T08:25:54.822Z,95423.25
2019-06-15T08:26:58.321Z,95411.51
2019-06-15T08:28:02.498Z,95422.19
2019-06-15T08:29:05.949Z,95419.97
2019-06-15T08:30:12.154Z,95416.61
2019-06-15T08:31:15.718Z,95418.22
2019-06-15T08:32:19.808Z,95419.57
2019-06-15T08:33:23.271Z,95415.69
2019-06-15T08:34:27.270Z,95421.19
2019-06-15T08:35:30.885Z,95422.41
2019-06-15T08:36:35.043Z,95420.24
2019-06-15T08:37:38.636Z,95423.84
2019-06-15T08:38:42.654Z,95420.47
2019-06-15T08:39:46.131Z,95421.41
2019-06-15T08:40:50.253Z,95428.92
2019-06-15T08:41:56.801Z,95426.63
2019-06-15T08:42:59.500Z,95422.08
2019-06-15T08:44:03.043Z,95425.56
2019-06-15T08:45:09.424Z,95428.08
2019-06-15T08:46:12.882Z,95436.36
2019-06-15T08:47:17.092Z,95434.45
2019-06-15T08:48:20.686Z,95440.94
2019-06-15T08:49:25.698Z,95441.94
2019-06-15T08:50:29.257Z,95440.79
2019-06-15T08:51:33.454Z,95441.48
2019-06-15T08:52:37.047Z,95446.04
2019-06-15T08:53:41.079Z,95439.27
2019-06-15T08:54:44.527Z,95448.02
2019-06-15T08:55:48.601Z,95441.91
2019-06-15T08:56:52.108Z,95446.44
2019-06-15T08:57:56.200Z,95449.92
2019-06-15T08:58:59.779Z,95448.41
2019-06-15T09:00:05.857Z,95446.69
2019-06-15T09:01:09.477Z,95440.61
2019-06-15T09:02:13.500Z,95438.25
2019-06-15T09:03:16.936Z,95441.91
2019-06-15T09:04:21.104Z,95425.84
2019-06-15T09:05:24.714Z,95435.94
2019-06-15T09:06:28.835Z,95432.98
2019-06-15T09:07:32.294Z,95440.34
2019-06-15T09:08:36.423Z,95433.35
2019-06-15T09:09:39.889Z,95441.70
2019-06-15T09:10:44.066Z,95443.80
2019-06-15T09:11:47.590Z,95442.87
2019-06-15T09:12:51.682Z,95422.33
2019-06-15T09:13:55.118Z,95447.08
2019-06-15T09:14:59.171Z,95445.94
2019-06-15T09:16:02.723Z,95445.79
2019-06-15T09:17:06.849Z,95451.92
2019-06-15T09:18:10.352Z,95445.50
2019-06-15T09:19:14.442Z,95442.08
2019-06-15T09:20:18.026Z,95442.56
2019-06-15T09:21:22.152Z,95438.29
2019-06-15T09:22:25.637Z,95437.21
2019-06-15T09:23:29.750Z,95443.40
2019-06-15T09:24:33.255Z,95434.97
2019-06-15T09:25:37.285Z,95434.11
2019-06-15T09:26:40.946Z,95440.30
2019-06-15T09:27:45.104Z,95431.71
2019-06-15T09:28:48.557Z,95426.87
2019-06-15T09:29:52.597Z,95434.31
2019-06-15T09:30:56.083Z,95433.55
2019-06-15T09:32:00.070Z,95431.77
2019-06-15T09:33:03.590Z,95432.81
2019-06-15T09:34:18.390Z,95434.42
2019-06-15T09:35:12.918Z,95432.41
2019-06-15T09:36:16.991Z,95434.03
2019-06-15T09:37:20.530Z,95428.10
2019-06-15T09:38:24.547Z,95431.00
2019-06-15T09:39:27.994Z,95437.91
2019-06-15T09:40:32.080Z,95434.03
2019-06-15T09:41:35.891Z,95443.98
2019-06-15T09:42:39.978Z,95390.69
2019-06-15T09:43:43.557Z,95439.39
2019-06-15T09:44:47.628Z,95437.23
2019-06-15T09:45:51.176Z,95444.11
2019-06-15T09:46:59.749Z,95447.06
2019-06-15T09:48:03.332Z,95445.32
2019-06-15T09:49:07.440Z,95441.14
2019-06-15T09:50:11.014Z,95441.16
2019-06-15T09:51:15.121Z,95450.16
2019-06-15T09:52:18.725Z,95447.61
2019-06-15T09:53:22.862Z,95448.00
2019-06-15T09:54:28.119Z,95456.48
2019-06-15T09:55:32.213Z,95452.38
2019-06-15T09:56:35.725Z,95458.89
2019-06-15T09:57:39.787Z,95455.39
2019-06-15T09:58:43.296Z,95458.76
2019-06-15T09:59:47.549Z,95456.06
2019-06-15T10:00:51.070Z,95457.27
2019-06-15T10:01:55.175Z,95447.72
2019-06-15T10:02:58.708Z,95458.02
2019-06-15T10:04:02.870Z,95456.77
2019-06-15T10:05:07.249Z,95462.66
2019-06-15T10:06:11.821Z,95461.93
2019-06-15T10:07:15.408Z,95463.92
2019-06-15T10:08:19.534Z,95462.84
2019-06-15T10:09:23.080Z,95471.69
2019-06-15T10:10:27.170Z,95469.81
2019-06-15T10:11:30.672Z,95472.81
2019-06-15T10:12:34.830Z,95479.76
2019-06-15T10:13:38.368Z,95478.80
2019-06-15T10:14:42.465Z,95477.38
2019-06-15T10:15:45.969Z,95473.78
2019-06-15T10:16:49.884Z,95480.02
2019-06-15T10:17:53.423Z,95475.70
2019-06-15T10:18:57.585Z,95476.50
2019-06-15T10:20:01.098Z,95473.27
2019-06-15T10:21:05.299Z,95481.30
2019-06-15T10:22:08.896Z,95482.89
2019-06-15T10:23:13.107Z,95478.19
2019-06-15T10:24:16.689Z,95480.01
2019-06-15T10:25:20.784Z,95483.53
2019-06-15T10:26:24.313Z,95476.34
2019-06-15T10:27:28.333Z,95477.95
2019-06-15T10:28:31.872Z,95485.28
2019-06-15T10:29:41.953Z,95482.98
2019-06-15T10:30:41.056Z,95478.12
2019-06-15T10:31:45.086Z,95486.06
2019-06-15T10:32:48.592Z,95483.38
2019-06-15T10:33:52.667Z,95490.78
2019-06-15T10:34:56.188Z,95491.80
2019-06-15T10:36:00.292Z,95482.59
2019-06-15T10:37:03.899Z,95492.09
2019-06-15T10:38:08.022Z,95489.03
2019-06-15T10:39:11.571Z,95491.91
2019-06-15T10:40:16.128Z,95490.23
2019-06-15T10:41:19.564Z,95483.88
2019-06-15T10:42:23.669Z,95485.66
2019-06-15T10:43:27.164Z,95482.52
2019-06-15T10:44:31.294Z,95478.89
2019-06-15T10:45:34.838Z,95473.02
2019-06-15T10:46:38.869Z,95478.48
2019-06-15T10:47:42.391Z,95469.98
2019-06-15T10:48:46.453Z,95481.53
2019-06-15T10:49:50.060Z,95471.67
2019-06-15T10:50:54.259Z,95478.09
2019-06-15T10:51:58.096Z,95481.28
2019-06-15T10:53:04.333Z,95479.86
2019-06-15T10:54:07.529Z,95478.58
2019-06-15T10:55:12.676Z,95469.35
2019-06-15T10:56:16.123Z,95473.40
2019-06-15T10:57:20.317Z,95475.38
2019-06-15T10:58:23.823Z,95468.92
2019-06-15T10:59:28.067Z,95470.27
2019-06-15T11:00:31.829Z,95475.66
2019-06-15T11:01:36.033Z,95475.83
2019-06-15T11:02:39.677Z,95477.96
2019-06-15T11:03:43.972Z,95476.23
2019-06-15T11:04:47.715Z,95477.30
2019-06-15T11:05:54.884Z,95482.27
2019-06-15T11:06:58.338Z,95478.85
2019-06-15T11:08:02.427Z,95487.48
2019-06-15T11:09:08.144Z,95486.00
2019-06-15T11:10:15.008Z,95491.16
2019-06-15T11:11:23.198Z,95492.57
2019-06-15T11:12:27.412Z,95481.63
2019-06-15T11:13:30.969Z,95480.80
2019-06-15T11:14:35.251Z,95477.76
2019-06-15T11:15:39.559Z,95475.98
2019-06-15T11:16:43.833Z,95475.27
2019-06-15T11:17:47.570Z,95472.24
2019-06-15T11:18:51.719Z,95475.44
2019-06-15T11:19:55.154Z,95477.94
2019-06-15T11:20:59.340Z,95472.84
2019-06-15T11:22:02.884Z,95473.56
2019-06-15T11:23:07.183Z,95474.60
2019-06-15T11:24:10.858Z,95484.20
2019-06-15T11:25:14.985Z,95482.11
2019-06-15T11:26:18.510Z,95481.76
2019-06-15T11:27:22.793Z,95479.41
2019-06-15T11:28:26.504Z,95478.71
2019-06-15T11:29:30.695Z,95484.70
2019-06-15T11:30:34.346Z,95485.55
2019-06-15T11:31:38.398Z,95486.50
2019-06-15T11:32:42.010Z,95485.55
2019-06-15T11:33:46.196Z,95488.83
2019-06-15T11:34:49.722Z,95486.48
2019-06-15T11:35:53.779Z,95485.03
2019-06-15T11:36:57.370Z,95483.25
2019-06-15T11:38:01.424Z,95479.20
2019-06-15T11:39:06.699Z,95479.11
2019-06-15T11:40:11.882Z,95484.87
2019-06-15T11:41:15.463Z,95480.61
2019-06-15T11:42:19.650Z,95483.95
2019-06-15T11:43:23.399Z,95481.14
2019-06-15T11:44:27.484Z,95479.25
2019-06-15T11:45:31.096Z,95481.20
2019-06-15T11:46:35.447Z,95479.45
2019-06-15T11:47:39.052Z,95481.70
2019-06-15T11:48:43.217Z,95475.75
2019-06-15T11:49:46.743Z,95477.99
2019-06-15T11:50:50.915Z,95478.74
2019-06-15T11:51:54.656Z,95476.46
2019-06-15T11:52:58.785Z,95474.14
2019-06-15T11:54:02.372Z,95483.52
2019-06-15T11:55:07.400Z,95482.03
2019-06-15T11:56:11.538Z,95483.74
2019-06-15T11:57:16.364Z,95482.86
2019-06-15T11:58:20.043Z,95486.05
2019-06-15T11:59:24.162Z,95486.91
2019-06-15T12:00:31.822Z,95474.42
2019-06-15T12:01:36.190Z,95481.33
2019-06-15T12:02:39.732Z,95481.33
2019-06-15T12:03:44.129Z,95475.47
2019-06-15T12:04:58.091Z,95471.88
2019-06-15T12:05:53.499Z,95471.88
2019-06-15T12:06:57.085Z,95470.13
2019-06-15T12:08:01.370Z,95465.50
2019-06-15T12:09:07.332Z,95464.63
2019-06-15T12:10:11.638Z,95464.63
2019-06-15T12:11:15.392Z,95476.19
2019-06-15T12:12:19.786Z,95473.76
2019-06-15T12:13:23.392Z,95473.22
2019-06-15T12:14:27.460Z,95473.22
2019-06-15T12:15:31.165Z,95469.56
2019-06-15T12:16:35.429Z,95466.70
2019-06-15T12:17:43.589Z,95464.87
2019-06-15T12:18:47.731Z,95471.30
2019-06-15T12:19:51.484Z,95471.30
2019-06-15T12:20:55.762Z,95463.91
2019-06-15T12:22:00.291Z,95468.09
2019-06-15T12:23:04.478Z,95467.38
2019-06-15T12:24:08.066Z,95467.38
2019-06-15T12:25:12.548Z,95472.27
2019-06-15T12:26:16.127Z,95470.52
2019-06-15T12:27:20.444Z,95464.11
2019-06-15T12:28:24.101Z,95464.10
2019-06-15T12:29:28.270Z,95464.10
2019-06-15T12:30:46.696Z,95474.31
2019-06-15T12:31:43.803Z,95474.56
2019-06-15T12:32:47.485Z,95473.92